Time;durP1;ratioP1;P1;durP2;ratioP2;P2;SDS_P1;SDS_P2;PMS_P1;PMS_P2;Temp;Humidity;BMP_temperature;BMP_pressure;BME280_temperature;BME280_humidity;BME280_pressure;Samples;Min_cycle;Max_cycle;Signal;HPM_P1;HPM_P2
2023/04/05 00:00:42;;;;;;;9.18;3.90;;;3.80;99.40;;;;;;5006147;28;20026;-71
2023/04/05 00:03:11;;;;;;;10.13;3.75;;;3.80;99.80;;;;;;5009182;28;20029;-73
2023/04/05 00:05:38;;;;;;;8.48;4.13;;;3.80;99.70;;;;;;5008610;28;20565;-74
2023/04/05 00:08:07;;;;;;;8.07;3.78;;;3.70;99.90;;;;;;5009101;28;20061;-72
2023/04/05 00:10:33;;;;;;;12.27;4.55;;;3.70;99.90;;;;;;5031782;28;20033;-72
2023/04/05 00:12:59;;;;;;;10.40;4.35;;;3.70;99.90;;;;;;5007961;28;20152;-72
2023/04/05 00:15:32;;;;;;;10.93;3.97;;;3.70;99.90;;;;;;5008212;28;20026;-73
2023/04/05 00:17:59;;;;;;;8.32;3.90;;;3.60;99.90;;;;;;5016236;28;20523;-72
2023/04/05 00:20:24;;;;;;;8.18;3.67;;;3.70;99.90;;;;;;5013242;28;20489;-73
2023/04/05 00:22:50;;;;;;;8.55;4.13;;;3.60;99.90;;;;;;5006716;28;20022;-73
2023/04/05 00:25:17;;;;;;;8.43;4.22;;;3.60;99.90;;;;;;5005037;28;20033;-72
2023/04/05 00:27:43;;;;;;;9.43;4.40;;;3.60;99.90;;;;;;5029324;28;20080;-73
2023/04/05 00:30:09;;;;;;;9.48;4.13;;;3.50;99.90;;;;;;5004098;28;20437;-74
2023/04/05 00:32:36;;;;;;;8.98;4.15;;;3.50;99.90;;;;;;5006974;28;20026;-74
2023/04/05 00:35:01;;;;;;;12.80;4.93;;;3.50;99.90;;;;;;5029521;28;20022;-74
2023/04/05 00:37:27;;;;;;;9.50;4.50;;;3.50;99.90;;;;;;4982084;28;20032;-74
2023/04/05 00:39:53;;;;;;;9.65;5.00;;;3.50;99.90;;;;;;5003449;28;20029;-74
2023/04/05 00:42:19;;;;;;;10.95;5.00;;;3.50;99.90;;;;;;5012990;28;20053;-72
2023/04/05 00:44:45;;;;;;;14.07;5.47;;;3.40;99.90;;;;;;5005288;28;20058;-75
2023/04/05 00:47:10;;;;;;;13.82;5.47;;;3.40;99.90;;;;;;5006269;28;20554;-72
2023/04/05 00:49:37;;;;;;;12.38;5.40;;;3.40;99.90;;;;;;5005933;28;20041;-72
2023/04/05 00:52:03;;;;;;;15.55;6.53;;;3.40;99.90;;;;;;5004942;28;20120;-74
2023/04/05 00:54:29;;;;;;;13.55;6.13;;;3.40;99.90;;;;;;5002230;28;20037;-74
2023/04/05 00:56:59;;;;;;;12.75;6.72;;;3.30;99.90;;;;;;5003868;28;20131;-74
2023/04/05 00:59:26;;;;;;;17.00;7.50;;;3.30;99.90;;;;;;5004346;28;20034;-74
2023/04/05 01:02:35;;;;;;;20.33;6.35;;;3.30;99.90;;;;;;5002603;28;20549;-74
2023/04/05 01:05:31;;;;;;;14.18;7.03;;;3.30;99.90;;;;;;4974667;28;20045;-72
2023/04/05 01:08:30;;;;;;;14.10;6.72;;;3.20;99.90;;;;;;4993900;28;20057;-72
2023/04/05 01:11:00;;;;;;;16.60;6.60;;;3.20;99.90;;;;;;4973920;28;20046;-72
2023/04/05 01:13:28;;;;;;;14.25;6.30;;;3.20;99.90;;;;;;4991791;28;20113;-72
2023/04/05 01:15:54;;;;;;;13.43;5.95;;;3.10;99.90;;;;;;4980536;28;20048;-72
2023/04/05 01:18:20;;;;;;;16.85;6.00;;;3.10;99.90;;;;;;4976828;28;20025;-72
2023/04/05 01:21:19;;;;;;;12.15;5.97;;;3.10;99.90;;;;;;4989062;28;20115;-72
2023/04/05 01:23:58;;;;;;;12.65;5.65;;;3.10;99.90;;;;;;4978627;28;20050;-72
2023/04/05 01:27:01;;;;;;;12.90;6.68;;;3.10;99.90;;;;;;4974321;28;20174;-72
2023/04/05 01:29:36;;;;;;;13.05;5.63;;;3.10;99.90;;;;;;4974307;28;20045;-72
2023/04/05 01:32:31;;;;;;;11.57;5.95;;;3.10;99.90;;;;;;4990402;28;20040;-72
2023/04/05 01:35:15;;;;;;;11.00;5.90;;;3.00;99.90;;;;;;4993382;28;20042;-74
2023/04/05 01:37:43;;;;;;;11.43;5.80;;;3.00;99.90;;;;;;5005943;28;20017;-74
2023/04/05 01:40:10;;;;;;;12.75;6.32;;;3.00;99.90;;;;;;5004261;28;20105;-75
2023/04/05 01:42:36;;;;;;;17.05;6.15;;;3.00;99.90;;;;;;5005875;28;20129;-74
2023/04/05 01:45:02;;;;;;;10.50;5.60;;;2.90;99.90;;;;;;5003889;28;20042;-72
2023/04/05 01:47:27;;;;;;;15.18;6.28;;;2.90;99.90;;;;;;5016378;28;20029;-74
2023/04/05 01:49:53;;;;;;;12.52;5.78;;;2.90;99.90;;;;;;5006499;28;20096;-73
2023/04/05 01:52:19;;;;;;;12.20;5.95;;;2.90;99.90;;;;;;5004657;28;20493;-74
2023/04/05 01:54:45;;;;;;;15.77;5.82;;;2.80;99.90;;;;;;5009329;28;20041;-75
2023/04/05 01:57:10;;;;;;;15.45;5.63;;;2.80;99.90;;;;;;5037545;28;20033;-73
2023/04/05 01:59:36;;;;;;;14.00;6.25;;;2.80;99.90;;;;;;5006397;28;20033;-73
2023/04/05 02:02:02;;;;;;;11.80;5.65;;;2.80;99.90;;;;;;5003251;28;20036;-73
2023/04/05 02:04:27;;;;;;;15.00;6.70;;;2.80;99.90;;;;;;5003536;28;20390;-73
2023/04/05 02:06:53;;;;;;;22.08;5.97;;;2.80;99.90;;;;;;5006343;28;20038;-72
2023/04/05 02:09:19;;;;;;;11.55;6.15;;;2.80;99.90;;;;;;5026209;28;20060;-74
2023/04/05 02:11:44;;;;;;;14.15;5.65;;;2.70;99.90;;;;;;5005846;28;20025;-74
2023/04/05 02:14:11;;;;;;;16.55;6.13;;;2.70;99.90;;;;;;5004780;28;20401;-73
2023/04/05 02:16:36;;;;;;;14.55;5.80;;;2.70;99.90;;;;;;5005904;28;20042;-72
2023/04/05 02:19:02;;;;;;;13.57;6.63;;;2.60;99.90;;;;;;5029244;28;20037;-73
2023/04/05 02:21:28;;;;;;;14.82;6.32;;;2.60;99.90;;;;;;5004863;28;20030;-74
2023/04/05 02:23:54;;;;;;;12.27;6.40;;;2.60;99.90;;;;;;5032359;28;20127;-73
2023/04/05 02:26:20;;;;;;;13.63;5.95;;;2.60;99.90;;;;;;5006735;28;20081;-72
2023/04/05 02:28:46;;;;;;;13.45;5.55;;;2.60;99.90;;;;;;5005133;28;20026;-72
2023/04/05 02:31:12;;;;;;;16.63;6.32;;;2.60;99.90;;;;;;5004949;28;20674;-72
2023/04/05 02:33:39;;;;;;;15.88;6.13;;;2.60;99.90;;;;;;5009012;28;20025;-73
2023/04/05 02:36:06;;;;;;;14.07;6.25;;;2.60;99.90;;;;;;5004393;28;20108;-72
2023/04/05 02:38:32;;;;;;;13.55;5.70;;;2.60;99.90;;;;;;5009384;28;20505;-72
2023/04/05 02:40:58;;;;;;;13.32;6.15;;;2.60;99.90;;;;;;5009243;28;20551;-74
2023/04/05 02:43:23;;;;;;;13.75;6.18;;;2.50;99.90;;;;;;5008208;28;20030;-74
2023/04/05 02:45:50;;;;;;;16.08;5.88;;;2.50;99.90;;;;;;5005985;28;20077;-75
2023/04/05 02:48:16;;;;;;;14.40;6.75;;;2.50;99.90;;;;;;5006287;28;20109;-75
2023/04/05 02:50:46;;;;;;;16.15;6.80;;;2.50;99.90;;;;;;5001685;28;20124;-75
2023/04/05 02:53:11;;;;;;;15.90;6.00;;;2.50;99.90;;;;;;5032643;28;20030;-72
2023/04/05 02:55:40;;;;;;;13.75;5.63;;;2.50;99.90;;;;;;5007132;28;20426;-73
2023/04/05 02:58:06;;;;;;;15.65;6.25;;;2.50;99.90;;;;;;5008238;28;20101;-73
2023/04/05 03:00:32;;;;;;;12.77;6.50;;;2.50;99.90;;;;;;5005655;28;20160;-74
2023/04/05 03:02:58;;;;;;;16.70;6.03;;;2.40;99.90;;;;;;5006285;28;20645;-73
2023/04/05 03:05:24;;;;;;;15.77;5.70;;;2.40;99.90;;;;;;5007604;28;20121;-72
2023/04/05 03:07:50;;;;;;;13.40;6.25;;;2.40;99.90;;;;;;4989233;28;20038;-72
2023/04/05 03:10:17;;;;;;;16.20;5.72;;;2.40;99.90;;;;;;5006521;28;20038;-74
2023/04/05 03:12:45;;;;;;;13.68;6.20;;;2.40;99.90;;;;;;5006891;28;20489;-74
2023/04/05 03:15:10;;;;;;;12.82;5.75;;;2.40;99.90;;;;;;5008203;28;20498;-74
2023/04/05 03:17:36;;;;;;;12.38;5.57;;;2.40;99.90;;;;;;5006687;28;20030;-74
2023/04/05 03:20:07;;;;;;;14.57;6.68;;;2.30;99.90;;;;;;5008160;28;20042;-72
2023/04/05 03:22:33;;;;;;;13.40;5.32;;;2.30;99.90;;;;;;5009571;28;20069;-74
2023/04/05 03:24:59;;;;;;;12.45;6.53;;;2.30;99.90;;;;;;5010571;28;20053;-74
2023/04/05 03:27:26;;;;;;;13.60;6.28;;;2.30;99.90;;;;;;5008696;28;20096;-72
2023/04/05 03:29:51;;;;;;;16.40;5.95;;;2.20;99.90;;;;;;5007323;28;20029;-73
2023/04/05 03:32:17;;;;;;;12.48;6.40;;;2.20;99.90;;;;;;5006122;28;20034;-72
2023/04/05 03:34:42;;;;;;;12.43;5.50;;;2.20;99.90;;;;;;5006921;28;20036;-72
2023/04/05 03:37:08;;;;;;;9.85;5.70;;;2.20;99.90;;;;;;5009855;28;20033;-73
2023/04/05 03:39:35;;;;;;;12.30;5.80;;;2.20;99.90;;;;;;5006708;28;20082;-73
2023/04/05 03:42:01;;;;;;;13.10;5.55;;;2.20;99.90;;;;;;5007899;28;20050;-74
2023/04/05 03:44:26;;;;;;;11.25;5.97;;;2.20;99.90;;;;;;5005611;28;20068;-74
2023/04/05 03:46:52;;;;;;;11.43;5.43;;;2.20;99.90;;;;;;5008087;28;20045;-74
2023/04/05 03:49:18;;;;;;;13.73;5.65;;;2.20;99.90;;;;;;5006731;28;20030;-71
2023/04/05 03:51:45;;;;;;;12.65;6.13;;;2.10;99.90;;;;;;5007869;28;20034;-73
2023/04/05 03:54:11;;;;;;;14.20;5.88;;;2.10;99.90;;;;;;5004741;28;20117;-74
2023/04/05 03:56:37;;;;;;;11.57;5.90;;;2.10;99.90;;;;;;5007442;28;20033;-72
2023/04/05 03:59:03;;;;;;;9.38;5.43;;;2.10;99.90;;;;;;5009314;28;20029;-74
2023/04/05 04:01:29;;;;;;;16.88;6.50;;;2.10;99.90;;;;;;5007503;28;20367;-72
2023/04/05 04:03:55;;;;;;;12.52;5.80;;;2.10;99.90;;;;;;5035233;28;20116;-74
2023/04/05 04:06:21;;;;;;;16.38;6.35;;;2.10;99.90;;;;;;4991777;28;20124;-73
2023/04/05 04:08:47;;;;;;;12.48;5.53;;;2.10;99.90;;;;;;5005804;28;20030;-72
2023/04/05 04:11:13;;;;;;;14.13;6.57;;;2.00;99.90;;;;;;5006160;28;20103;-74
2023/04/05 04:13:38;;;;;;;16.30;6.22;;;2.00;99.90;;;;;;5007863;28;20120;-74
2023/04/05 04:16:04;;;;;;;18.42;5.95;;;2.00;99.90;;;;;;5006960;28;20041;-75
2023/04/05 04:18:30;;;;;;;13.30;5.38;;;2.00;99.90;;;;;;5010438;28;20523;-74
2023/04/05 04:20:57;;;;;;;14.88;6.03;;;2.00;99.90;;;;;;5005396;28;20120;-73
2023/04/05 04:23:23;;;;;;;11.30;5.80;;;2.00;99.90;;;;;;5004852;28;20076;-74
2023/04/05 04:25:53;;;;;;;15.40;6.35;;;2.00;99.90;;;;;;5007984;28;20072;-72
2023/04/05 04:28:20;;;;;;;13.55;5.82;;;2.00;99.90;;;;;;5009574;28;20565;-72
2023/04/05 04:30:45;;;;;;;16.15;6.95;;;2.00;99.90;;;;;;5007674;28;20072;-72
2023/04/05 04:33:12;;;;;;;13.68;6.38;;;2.00;99.90;;;;;;5011881;28;20057;-75
2023/04/05 04:35:37;;;;;;;17.50;6.57;;;2.00;99.90;;;;;;5028371;28;20056;-73
2023/04/05 04:38:04;;;;;;;17.83;7.45;;;2.00;99.90;;;;;;5006476;28;20471;-72
2023/04/05 04:40:38;;;;;;;21.48;8.75;;;2.00;99.90;;;;;;5005675;28;20468;-74
2023/04/05 04:43:04;;;;;;;22.30;9.30;;;1.90;99.90;;;;;;5004684;28;20033;-72
2023/04/05 04:45:36;;;;;;;22.30;9.65;;;2.00;99.90;;;;;;4984506;28;20495;-74
2023/04/05 04:48:03;;;;;;;17.90;8.65;;;2.00;99.90;;;;;;5006681;28;20066;-74
2023/04/05 04:50:30;;;;;;;19.85;9.15;;;1.90;99.90;;;;;;4988291;28;20029;-73
2023/04/05 04:52:58;;;;;;;20.25;8.18;;;1.90;99.90;;;;;;4996612;28;20061;-74
2023/04/05 04:55:26;;;;;;;23.88;8.20;;;2.00;99.90;;;;;;5020473;28;20045;-73
2023/04/05 04:57:53;;;;;;;21.50;8.55;;;2.00;99.90;;;;;;5003013;28;20022;-74
2023/04/05 05:00:20;;;;;;;24.38;8.25;;;1.90;99.90;;;;;;4984634;28;20209;-74
2023/04/05 05:02:46;;;;;;;19.67;7.68;;;2.00;99.90;;;;;;4978789;28;20030;-74
2023/04/05 05:05:12;;;;;;;22.40;7.85;;;2.20;99.90;;;;;;4999593;28;20099;-74
2023/04/05 05:07:40;;;;;;;19.73;7.95;;;2.10;99.90;;;;;;5002566;28;20034;-75
2023/04/05 05:10:07;;;;;;;19.58;6.78;;;2.10;99.90;;;;;;5002677;28;20026;-73
2023/04/05 05:12:33;;;;;;;18.98;7.18;;;2.10;99.90;;;;;;4998388;28;20548;-73
2023/04/05 05:14:59;;;;;;;16.60;7.57;;;2.10;99.90;;;;;;5000693;28;20036;-73
2023/04/05 05:17:25;;;;;;;19.58;7.13;;;2.10;99.90;;;;;;5003088;28;20390;-74
2023/04/05 05:19:51;;;;;;;16.65;7.00;;;2.10;99.90;;;;;;5006108;28;20022;-73
2023/04/05 05:22:17;;;;;;;14.77;6.57;;;2.20;99.90;;;;;;5006545;28;20108;-73
2023/04/05 05:24:44;;;;;;;15.55;6.55;;;2.20;99.90;;;;;;5005764;28;20038;-73
2023/04/05 05:27:10;;;;;;;21.30;6.85;;;2.30;99.90;;;;;;5005931;28;20038;-76
2023/04/05 05:29:35;;;;;;;29.50;10.75;;;2.40;99.90;;;;;;5001762;28;20052;-72
2023/04/05 05:32:01;;;;;;;15.90;6.55;;;2.40;99.90;;;;;;5005137;28;20064;-75
2023/04/05 05:34:27;;;;;;;16.20;6.68;;;2.40;99.90;;;;;;5001807;28;20026;-73
2023/04/05 05:36:54;;;;;;;13.43;6.60;;;2.40;99.90;;;;;;5001705;28;20045;-74
2023/04/05 05:39:20;;;;;;;16.65;7.30;;;2.40;99.90;;;;;;4997723;28;20025;-74
2023/04/05 05:41:46;;;;;;;23.65;7.03;;;2.50;99.90;;;;;;5001013;28;20045;-72
2023/04/05 05:44:12;;;;;;;17.48;6.53;;;2.50;99.90;;;;;;4999924;28;20041;-72
2023/04/05 05:46:38;;;;;;;17.15;6.57;;;2.60;99.90;;;;;;5001644;28;20105;-71
2023/04/05 05:49:04;;;;;;;15.43;6.82;;;2.60;99.90;;;;;;5005118;28;20033;-75
2023/04/05 05:51:31;;;;;;;16.20;7.80;;;2.70;99.90;;;;;;4998132;28;20056;-75
2023/04/05 05:54:00;;;;;;;17.73;8.25;;;2.70;99.90;;;;;;5002059;28;20461;-77
2023/04/05 05:56:26;;;;;;;17.80;7.90;;;2.80;99.90;;;;;;5001251;28;20053;-75
2023/04/05 05:58:52;;;;;;;14.38;7.82;;;2.80;99.90;;;;;;5005107;28;20086;-75
2023/04/05 06:01:21;;;;;;;22.42;7.28;;;2.80;99.90;;;;;;4984412;28;20053;-75
2023/04/05 06:03:47;;;;;;;18.33;7.25;;;2.80;99.90;;;;;;5005941;28;20030;-75
2023/04/05 06:06:13;;;;;;;15.13;6.93;;;2.80;99.90;;;;;;4999654;28;20029;-73
2023/04/05 06:08:39;;;;;;;16.25;6.68;;;2.80;99.90;;;;;;5006510;28;20030;-72
2023/04/05 06:11:05;;;;;;;14.73;6.70;;;2.80;99.90;;;;;;5001236;28;20041;-73
2023/04/05 06:13:31;;;;;;;11.45;6.43;;;2.80;99.90;;;;;;5003694;28;20542;-75
2023/04/05 06:15:56;;;;;;;14.60;7.10;;;2.80;99.90;;;;;;5000097;28;20061;-72
2023/04/05 06:18:22;;;;;;;13.95;6.43;;;2.80;99.90;;;;;;4999631;28;20030;-72
2023/04/05 06:20:48;;;;;;;15.35;5.43;;;2.90;99.90;;;;;;5004709;28;20042;-73
2023/04/05 06:23:13;;;;;;;12.75;5.25;;;2.90;99.90;;;;;;5027982;28;20030;-75
2023/04/05 06:25:39;;;;;;;11.25;5.65;;;3.00;99.90;;;;;;5001736;28;20033;-72
2023/04/05 06:28:06;;;;;;;9.93;4.82;;;3.10;99.90;;;;;;5033598;28;20034;-74
2023/04/05 06:30:33;;;;;;;11.30;5.60;;;3.20;99.90;;;;;;5005564;28;20319;-75
2023/04/05 06:32:59;;;;;;;15.02;5.00;;;3.20;99.90;;;;;;5017132;28;20097;-74
2023/04/05 06:35:25;;;;;;;10.20;5.10;;;3.30;99.90;;;;;;5004613;28;20049;-74
2023/04/05 06:37:51;;;;;;;8.45;4.18;;;3.40;99.90;;;;;;5005355;28;20383;-75
2023/04/05 06:40:17;;;;;;;10.40;6.43;;;3.50;99.90;;;;;;5005149;28;20022;-74
2023/04/05 06:42:44;;;;;;;14.75;6.43;;;3.60;99.90;;;;;;5016689;28;20033;-72
2023/04/05 06:45:10;;;;;;;9.35;4.95;;;3.60;99.90;;;;;;5004032;28;20022;-74
2023/04/05 06:47:38;;;;;;;9.52;4.47;;;3.60;99.90;;;;;;5006711;28;20032;-71
2023/04/05 06:50:06;;;;;;;11.05;4.03;;;3.60;99.90;;;;;;5004204;28;20032;-74
2023/04/05 06:52:32;;;;;;;7.28;3.10;;;3.60;99.90;;;;;;5008345;28;20054;-71
2023/04/05 06:54:58;;;;;;;6.18;3.30;;;4.80;99.90;;;;;;5035949;28;20025;-72
2023/04/05 06:57:24;;;;;;;10.65;4.13;;;4.60;99.90;;;;;;5027358;28;20448;-75
2023/04/05 06:59:51;;;;;;;6.22;3.50;;;4.50;99.90;;;;;;5013294;28;20034;-71
2023/04/05 07:02:17;;;;;;;8.18;3.45;;;4.40;99.90;;;;;;5001634;28;20445;-72
2023/04/05 07:04:43;;;;;;;6.53;3.00;;;4.30;99.90;;;;;;5008897;28;20076;-74
2023/04/05 07:07:09;;;;;;;9.07;3.25;;;4.20;99.90;;;;;;5008069;28;20109;-74
2023/04/05 07:09:48;;;;;;;8.10;3.60;;;4.20;99.90;;;;;;5055364;28;20407;-74
2023/04/05 07:12:14;;;;;;;6.78;3.15;;;4.20;99.90;;;;;;5036954;28;20569;-77
2023/04/05 07:14:40;;;;;;;8.65;3.75;;;4.30;99.90;;;;;;5048159;28;20025;-72
2023/04/05 07:17:06;;;;;;;6.55;3.35;;;4.30;99.90;;;;;;5013616;28;20029;-72
2023/04/05 07:19:32;;;;;;;9.80;4.45;;;4.30;99.90;;;;;;5036229;28;20468;-72
2023/04/05 07:21:58;;;;;;;13.40;4.40;;;4.30;99.90;;;;;;5033487;28;20033;-72
2023/04/05 07:24:24;;;;;;;7.18;3.20;;;4.30;99.90;;;;;;5035417;28;20026;-74
2023/04/05 07:26:50;;;;;;;7.57;3.83;;;4.40;99.90;;;;;;5030686;28;20086;-73
2023/04/05 07:29:16;;;;;;;11.63;3.75;;;4.40;99.90;;;;;;5016317;28;20056;-73
2023/04/05 07:31:42;;;;;;;8.27;3.83;;;4.50;99.90;;;;;;5050252;28;20029;-73
2023/04/05 07:34:08;;;;;;;8.43;4.18;;;4.50;99.90;;;;;;5034752;28;20029;-75
2023/04/05 07:36:33;;;;;;;9.15;4.10;;;4.60;99.90;;;;;;5016724;28;20025;-75
2023/04/05 07:39:00;;;;;;;10.23;3.78;;;4.70;99.90;;;;;;5030622;28;20469;-72
2023/04/05 07:41:30;;;;;;;8.95;4.05;;;4.70;99.90;;;;;;5034903;28;20445;-75
2023/04/05 07:43:56;;;;;;;10.55;4.90;;;4.70;99.90;;;;;;5012910;28;20052;-74
2023/04/05 07:46:22;;;;;;;11.40;4.68;;;4.70;99.90;;;;;;5032758;28;20025;-74
2023/04/05 07:48:48;;;;;;;8.98;4.47;;;4.70;99.90;;;;;;5030102;28;20033;-71
2023/04/05 07:51:14;;;;;;;12.07;4.78;;;4.80;99.90;;;;;;5039605;28;20026;-73
2023/04/05 07:53:41;;;;;;;7.35;3.70;;;4.90;99.90;;;;;;5036239;28;20026;-74
2023/04/05 07:56:12;;;;;;;7.07;3.45;;;4.90;99.90;;;;;;5036240;28;20121;-76
2023/04/05 07:58:39;;;;;;;9.32;4.07;;;5.00;99.90;;;;;;5034455;28;20033;-73
2023/04/05 08:01:06;;;;;;;8.48;3.67;;;5.00;99.90;;;;;;5032365;28;20041;-75
2023/04/05 08:03:33;;;;;;;12.07;3.60;;;5.10;99.90;;;;;;5032148;28;20029;-76
2023/04/05 08:06:16;;;;;;;11.57;3.40;;;5.00;99.90;;;;;;5029781;28;20033;-73
2023/04/05 08:08:43;;;;;;;10.27;3.50;;;5.10;99.90;;;;;;5031530;28;20089;-76
2023/04/05 08:11:09;;;;;;;10.52;4.07;;;5.10;99.90;;;;;;5033708;28;20025;-73
2023/04/05 08:13:35;;;;;;;8.63;3.38;;;5.20;99.90;;;;;;5016019;28;20025;-73
2023/04/05 08:16:01;;;;;;;6.53;3.63;;;5.20;99.90;;;;;;5034980;28;20044;-72
2023/04/05 08:18:27;;;;;;;9.32;3.90;;;5.30;99.90;;;;;;5030875;28;20045;-73
2023/04/05 08:20:54;;;;;;;6.85;3.67;;;5.30;99.90;;;;;;5020425;28;20036;-75
2023/04/05 08:23:20;;;;;;;9.82;3.90;;;5.40;99.90;;;;;;5000281;28;20075;-72
2023/04/05 08:25:46;;;;;;;14.43;3.90;;;5.30;99.90;;;;;;5017595;28;20155;-73
2023/04/05 08:28:12;;;;;;;8.52;3.67;;;5.40;99.90;;;;;;5016635;28;20040;-74
2023/04/05 08:30:38;;;;;;;7.07;3.92;;;5.50;99.90;;;;;;5018613;28;20430;-74
2023/04/05 08:33:05;;;;;;;5.90;3.00;;;5.60;99.90;;;;;;5022578;28;20464;-72
2023/04/05 08:35:31;;;;;;;8.80;3.55;;;5.60;99.90;;;;;;5040119;28;20255;-75
2023/04/05 08:37:57;;;;;;;5.65;2.60;;;5.60;95.10;;;;;;5023662;28;20021;-76
2023/04/05 08:40:46;;;;;;;6.53;2.65;;;5.70;92.60;;;;;;5018643;28;20489;-74
2023/04/05 08:43:51;;;;;;;6.05;2.33;;;5.70;91.90;;;;;;5019434;28;20120;-73
2023/04/05 08:46:19;;;;;;;6.32;3.03;;;5.70;91.10;;;;;;5012712;28;20049;-73
2023/04/05 08:48:45;;;;;;;5.15;2.70;;;5.80;91.00;;;;;;5033701;28;21636;-76
2023/04/05 08:51:11;;;;;;;6.57;2.90;;;5.80;91.90;;;;;;5020359;28;20060;-73
2023/04/05 08:53:37;;;;;;;4.15;2.70;;;5.90;90.60;;;;;;5018728;28;20040;-73
2023/04/05 08:56:03;;;;;;;8.73;2.70;;;5.90;91.10;;;;;;5017795;28;20026;-72
2023/04/05 08:58:33;;;;;;;5.60;2.75;;;6.00;90.40;;;;;;5018718;28;20034;-75
2023/04/05 09:00:59;;;;;;;7.13;2.80;;;6.10;90.20;;;;;;5019541;28;20121;-75
2023/04/05 09:03:29;;;;;;;4.53;2.55;;;6.20;86.80;;;;;;5017552;28;20029;-75
2023/04/05 09:05:58;;;;;;;6.95;3.45;;;6.20;87.90;;;;;;5019900;28;20021;-75
2023/04/05 09:08:24;;;;;;;6.82;2.83;;;6.20;85.40;;;;;;5019263;28;20057;-73
2023/04/05 09:10:50;;;;;;;4.85;2.97;;;6.20;85.50;;;;;;5019243;28;20531;-72
2023/04/05 09:13:16;;;;;;;6.82;3.03;;;6.30;86.00;;;;;;5020106;28;20095;-73
2023/04/05 09:15:43;;;;;;;9.27;2.90;;;6.30;86.40;;;;;;5019094;28;20053;-75
2023/04/05 09:18:09;;;;;;;7.65;2.95;;;6.30;87.30;;;;;;5019257;28;20030;-75
2023/04/05 09:20:35;;;;;;;6.72;3.10;;;6.40;89.80;;;;;;5017441;28;20049;-75
2023/04/05 09:23:00;;;;;;;6.50;3.22;;;6.40;88.10;;;;;;5016527;28;20544;-75
2023/04/05 09:25:39;;;;;;;8.68;3.38;;;6.50;84.20;;;;;;5016827;28;20117;-72
2023/04/05 09:28:06;;;;;;;6.57;3.20;;;6.90;85.50;;;;;;5019525;28;20040;-73
2023/04/05 09:30:33;;;;;;;8.07;3.05;;;6.70;87.20;;;;;;5019616;28;20072;-73
2023/04/05 09:32:59;;;;;;;6.93;3.35;;;6.70;84.30;;;;;;5016753;28;20508;-75
2023/04/05 09:35:27;;;;;;;7.28;3.05;;;6.70;83.80;;;;;;5019265;28;20026;-72
2023/04/05 09:37:56;;;;;;;5.63;2.50;;;6.80;80.80;;;;;;5017892;28;20037;-73
2023/04/05 09:40:22;;;;;;;5.93;2.90;;;6.70;81.10;;;;;;5014677;28;20448;-73
2023/04/05 09:42:48;;;;;;;9.00;2.80;;;6.80;81.60;;;;;;5018933;28;20083;-73
2023/04/05 09:45:17;;;;;;;7.32;3.38;;;6.80;82.40;;;;;;5016914;28;20033;-73
2023/04/05 09:47:52;;;;;;;4.50;2.70;;;6.90;81.60;;;;;;5014284;28;23084;-73
2023/04/05 09:50:19;;;;;;;4.60;2.60;;;7.00;82.20;;;;;;5018705;28;20018;-75
2023/04/05 09:52:45;;;;;;;4.50;2.50;;;7.00;79.80;;;;;;5019848;28;20030;-77
2023/04/05 09:55:11;;;;;;;5.93;2.88;;;6.90;79.90;;;;;;5016081;28;20026;-75
2023/04/05 09:57:39;;;;;;;5.70;2.85;;;6.80;78.20;;;;;;5016982;28;20482;-75
2023/04/05 10:00:16;;;;;;;8.60;2.80;;;6.80;78.30;;;;;;5018309;28;20033;-73
2023/04/05 10:02:42;;;;;;;4.85;2.90;;;6.80;78.20;;;;;;5014859;28;20113;-72
2023/04/05 10:05:14;;;;;;;7.07;3.13;;;6.90;77.60;;;;;;5015966;28;20109;-73
2023/04/05 10:07:40;;;;;;;6.15;3.10;;;7.00;77.80;;;;;;5015800;28;20022;-75
2023/04/05 10:10:08;;;;;;;4.55;2.90;;;7.10;77.60;;;;;;5016276;28;20052;-73
2023/04/05 10:12:36;;;;;;;7.97;3.67;;;7.10;76.60;;;;;;5017347;28;20092;-73
2023/04/05 10:15:02;;;;;;;6.47;3.33;;;7.20;75.70;;;;;;5015960;28;20105;-72
2023/04/05 10:17:37;;;;;;;9.13;3.42;;;7.20;76.80;;;;;;5050071;28;20553;-71
2023/04/05 10:20:03;;;;;;;6.18;3.08;;;7.40;77.50;;;;;;5018758;28;20168;-72
2023/04/05 10:22:35;;;;;;;8.65;3.33;;;7.60;77.40;;;;;;5016648;28;20165;-76
2023/04/05 10:25:11;;;;;;;10.07;3.60;;;7.60;74.80;;;;;;4999762;28;20289;-75
2023/04/05 10:27:52;;;;;;;6.45;3.20;;;7.80;75.50;;;;;;5017723;28;20069;-75
2023/04/05 10:30:18;;;;;;;7.57;3.40;;;7.80;74.50;;;;;;5015296;28;20045;-74
2023/04/05 10:32:52;;;;;;;8.10;3.13;;;7.80;74.00;;;;;;5016698;28;20064;-73
2023/04/05 10:35:36;;;;;;;9.00;4.03;;;7.70;75.20;;;;;;5014457;28;20021;-73
2023/04/05 10:38:07;;;;;;;7.25;3.40;;;7.60;75.10;;;;;;5015581;28;20521;-73
2023/04/05 10:40:34;;;;;;;7.57;3.40;;;7.60;75.20;;;;;;5016667;28;20068;-73
2023/04/05 10:43:00;;;;;;;5.30;3.17;;;7.60;75.20;;;;;;5016050;28;20033;-73
2023/04/05 10:45:27;;;;;;;9.93;3.92;;;7.80;75.10;;;;;;5017419;28;20117;-74
2023/04/05 10:48:13;;;;;;;5.55;3.60;;;8.10;74.20;;;;;;5016585;28;20512;-73
2023/04/05 10:50:39;;;;;;;7.93;3.42;;;8.30;75.60;;;;;;5016972;28;20057;-75
2023/04/05 10:53:06;;;;;;;5.97;3.20;;;8.40;75.60;;;;;;5016580;28;20018;-73
2023/04/05 10:55:34;;;;;;;8.10;3.85;;;8.50;74.80;;;;;;5014028;28;20022;-73
2023/04/05 10:58:00;;;;;;;5.88;3.17;;;8.50;73.30;;;;;;5015788;28;20034;-76
2023/04/05 11:00:26;;;;;;;8.95;3.65;;;8.50;72.70;;;;;;5015610;28;20040;-76
2023/04/05 11:02:55;;;;;;;6.38;3.80;;;8.60;72.30;;;;;;5015706;28;20393;-73
2023/04/05 11:05:36;;;;;;;6.47;2.80;;;8.90;72.30;;;;;;5013959;28;20500;-73
2023/04/05 11:08:07;;;;;;;5.50;2.60;;;9.10;70.80;;;;;;5019972;28;20283;-74
2023/04/05 11:10:35;;;;;;;4.32;2.75;;;9.20;70.70;;;;;;5016775;28;20161;-74
2023/04/05 11:13:02;;;;;;;7.00;3.05;;;9.30;68.90;;;;;;5015154;28;20053;-75
2023/04/05 11:15:31;;;;;;;6.18;3.80;;;9.30;69.70;;;;;;5015269;28;20030;-75
2023/04/05 11:18:10;;;;;;;6.63;3.70;;;9.20;68.70;;;;;;5015816;28;20493;-73
2023/04/05 11:20:42;;;;;;;4.32;2.58;;;9.20;67.60;;;;;;5013309;28;20026;-74
2023/04/05 11:23:14;;;;;;;3.85;2.30;;;9.00;68.70;;;;;;5017908;28;20413;-73
2023/04/05 11:25:56;;;;;;;5.35;2.67;;;9.10;69.90;;;;;;5002318;28;20347;-76
2023/04/05 11:28:23;;;;;;;6.85;3.35;;;8.90;69.00;;;;;;5014693;28;20394;-72
2023/04/05 11:30:50;;;;;;;7.68;3.55;;;8.70;70.30;;;;;;5018453;28;20029;-74
2023/04/05 11:33:41;;;;;;;6.53;3.72;;;8.50;72.40;;;;;;5015898;28;20022;-72
2023/04/05 11:36:08;;;;;;;5.30;3.30;;;8.50;71.90;;;;;;5015041;28;20100;-73
2023/04/05 11:38:34;;;;;;;9.82;3.45;;;8.40;73.10;;;;;;5011806;28;20029;-73
2023/04/05 11:41:20;;;;;;;4.80;3.20;;;8.50;72.80;;;;;;5017383;28;20045;-75
2023/04/05 11:43:46;;;;;;;7.10;3.72;;;8.50;73.50;;;;;;5012231;28;20046;-75
2023/04/05 11:46:14;;;;;;;8.02;4.18;;;8.60;73.20;;;;;;5016963;28;20485;-72
2023/04/05 11:48:41;;;;;;;5.18;3.00;;;8.70;73.40;;;;;;5016325;28;20485;-72
2023/04/05 11:51:09;;;;;;;6.22;3.13;;;8.90;73.20;;;;;;5017835;28;20033;-74
2023/04/05 11:53:36;;;;;;;6.65;3.65;;;9.10;72.10;;;;;;5017797;28;20514;-74
2023/04/05 11:56:11;;;;;;;7.07;3.38;;;9.40;72.30;;;;;;5014794;28;20125;-76
2023/04/05 11:58:37;;;;;;;7.15;3.72;;;9.70;70.80;;;;;;5016998;28;20022;-73
2023/04/05 12:01:08;;;;;;;10.07;3.83;;;9.80;71.40;;;;;;5018755;28;20037;-75
2023/04/05 12:03:35;;;;;;;6.50;3.45;;;10.10;70.00;;;;;;5020922;28;20095;-77
2023/04/05 12:06:05;;;;;;;6.65;4.20;;;10.60;68.10;;;;;;5022008;28;20034;-75
2023/04/05 12:08:41;;;;;;;6.77;3.83;;;10.60;66.60;;;;;;5016299;28;20083;-73
2023/04/05 12:11:09;;;;;;;7.03;3.35;;;10.40;66.00;;;;;;5035352;28;20025;-75
2023/04/05 12:13:35;;;;;;;7.03;3.67;;;10.50;65.20;;;;;;5015656;28;20022;-76
2023/04/05 12:16:06;;;;;;;8.32;3.85;;;10.40;65.70;;;;;;5014975;28;20481;-73
2023/04/05 12:18:36;;;;;;;5.60;3.50;;;10.30;65.40;;;;;;5019805;28;20034;-75
2023/04/05 12:21:11;;;;;;;5.97;2.47;;;10.30;65.50;;;;;;5018640;28;20397;-73
2023/04/05 12:23:37;;;;;;;7.43;2.55;;;10.50;74.50;;;;;;5020661;28;20072;-77
2023/04/05 12:26:06;;;;;;;5.82;3.10;;;11.20;73.80;;;;;;5019719;28;20132;-73
2023/04/05 12:28:54;;;;;;;4.80;2.90;;;10.60;66.40;;;;;;5016630;28;20036;-75
2023/04/05 12:31:41;;;;;;;5.95;3.25;;;10.00;65.50;;;;;;5013155;28;20505;-74
2023/04/05 12:34:08;;;;;;;6.38;2.90;;;9.60;65.00;;;;;;5018297;28;20049;-73
2023/04/05 12:36:34;;;;;;;5.88;3.03;;;9.30;64.30;;;;;;5018654;28;20433;-73
2023/04/05 12:39:05;;;;;;;7.68;2.85;;;9.30;65.40;;;;;;5019894;28;20080;-73
2023/04/05 12:41:31;;;;;;;5.70;3.58;;;9.10;65.90;;;;;;5016668;28;20103;-73
2023/04/05 12:44:00;;;;;;;5.75;3.30;;;9.00;67.60;;;;;;5015056;28;20038;-75
2023/04/05 12:46:40;;;;;;;5.70;3.25;;;8.90;69.80;;;;;;5017460;28;20125;-74
2023/04/05 12:49:10;;;;;;;10.52;5.03;;;9.00;71.40;;;;;;5010679;28;20077;-73
2023/04/05 12:51:49;;;;;;;8.50;3.83;;;8.80;73.30;;;;;;5050380;28;20026;-74
2023/04/05 12:54:23;;;;;;;5.80;3.85;;;8.70;73.20;;;;;;5017992;28;20052;-75
2023/04/05 12:56:51;;;;;;;7.82;3.88;;;8.60;74.50;;;;;;5003663;28;20378;-77